Archival Weather

Tokyo Intl

Tokyo, Japan (RJTT)

Report from: Friday, September 22, 2023 12:00 AM JST
Current time: Sunday, February 25, 2024 12:48 AM JST

Current weather – Weather history – Daily summaries
Weather forecast

Present weatherLight rain showers, rain showers
Temperature28.0°C (82.4°F)
Heat index32.7°C (90.9°F)
Dew point25.0°C (77.0°F)
Winds 17 kts (8.7 m/s, 19.6 mph) South-Southwest (210°)
Visibility6.2 mi. (10 km)
Clouds Few clouds 2,000 ft. (610 m)
Scattered clouds 10,000 ft. (3,048 m)
Ceiling: Broken clouds 16,000 ft. (4,877 m)
Altimeter29.74 in.Hg (1007 mB)
Relative humidity84 %
Density altitude2,129 ft. (649 m)
Flight conditions Visual Meteorological Conditions
Raw dataRJTT 211500Z 21017KT 9999 -SHRA FEW020 SCT100 BKN160 28/25 Q1007 TEMPO 4000 SHRA BR
An error has occurred. This application may no longer respond until reloaded. Reload 🗙